Terminal Aerodrome Forecast
Issued by NWS

Home | Current Version | Previous Version | Text Only | Print | Product List | Glossary On
Versions: 1 2 3 4 5 6 7 8 9 10 11 12 13 14 15 16 17 18 19
000
FTUS43 KSGF 260500
TAFJLN
TAF
KJLN 260530Z 2606/2706 33018G26KT P6SM OVC015
      TEMPO 2608/2611 6SM -SN
     FM261700 35014G24KT P6SM BKN025
     FM262000 34013G20KT P6SM SCT025
     FM270000 36010KT P6SM SKC=

USA.gov is the U.S. government's official web portal to all federal, state and local government web resources and services.